sensor_id;sensor_type;location;lat;lon;timestamp;pressure;altitude;pressure_sealevel;temperature;humidity
57452;BME280;66031;51.224;-0.164;2023-01-29T00:01:02;102282.38;;;16.08;31.80
57452;BME280;66031;51.224;-0.164;2023-01-29T00:03:26;102282.47;;;16.44;31.64
57452;BME280;66031;51.224;-0.164;2023-01-29T00:05:52;102283.94;;;16.47;31.86
57452;BME280;66031;51.224;-0.164;2023-01-29T00:08:17;102283.12;;;16.45;31.87
57452;BME280;66031;51.224;-0.164;2023-01-29T00:10:43;102277.39;;;16.52;32.04
57452;BME280;66031;51.224;-0.164;2023-01-29T00:13:08;102278.96;;;16.31;31.99
57452;BME280;66031;51.224;-0.164;2023-01-29T00:15:33;102274.55;;;16.22;32.06
57452;BME280;66031;51.224;-0.164;2023-01-29T00:17:59;102273.47;;;16.01;32.02
57452;BME280;66031;51.224;-0.164;2023-01-29T00:20:24;102266.75;;;16.27;31.97
57452;BME280;66031;51.224;-0.164;2023-01-29T00:22:49;102264.25;;;16.45;32.03
57452;BME280;66031;51.224;-0.164;2023-01-29T00:25:15;102265.19;;;16.15;32.08
57452;BME280;66031;51.224;-0.164;2023-01-29T00:27:40;102263.89;;;16.28;32.21
57452;BME280;66031;51.224;-0.164;2023-01-29T00:30:08;102267.30;;;16.59;32.11
57452;BME280;66031;51.224;-0.164;2023-01-29T00:32:31;102269.79;;;16.31;32.14
57452;BME280;66031;51.224;-0.164;2023-01-29T00:34:56;102267.75;;;16.26;32.19
57452;BME280;66031;51.224;-0.164;2023-01-29T00:37:22;102265.94;;;16.00;32.21
57452;BME280;66031;51.224;-0.164;2023-01-29T00:39:47;102265.05;;;16.45;32.22
57452;BME280;66031;51.224;-0.164;2023-01-29T00:42:13;102272.77;;;16.22;32.22
57452;BME280;66031;51.224;-0.164;2023-01-29T00:44:38;102276.71;;;16.36;32.31
57452;BME280;66031;51.224;-0.164;2023-01-29T00:47:04;102281.49;;;16.07;32.35
57452;BME280;66031;51.224;-0.164;2023-01-29T00:49:29;102281.72;;;16.28;32.44
57452;BME280;66031;51.224;-0.164;2023-01-29T00:51:54;102277.53;;;16.00;32.47
57452;BME280;66031;51.224;-0.164;2023-01-29T00:54:20;102273.86;;;16.02;32.50
57452;BME280;66031;51.224;-0.164;2023-01-29T00:56:45;102270.26;;;16.22;32.55
57452;BME280;66031;51.224;-0.164;2023-01-29T00:59:10;102265.69;;;15.71;32.58
57452;BME280;66031;51.224;-0.164;2023-01-29T01:01:36;102265.47;;;16.15;32.63
57452;BME280;66031;51.224;-0.164;2023-01-29T01:04:01;102268.56;;;16.13;32.66
57452;BME280;66031;51.224;-0.164;2023-01-29T01:06:26;102270.16;;;16.13;32.66
57452;BME280;66031;51.224;-0.164;2023-01-29T01:08:52;102267.76;;;15.87;32.68
57452;BME280;66031;51.224;-0.164;2023-01-29T01:11:17;102269.19;;;15.83;32.76
57452;BME280;66031;51.224;-0.164;2023-01-29T01:13:43;102267.25;;;15.79;32.78
57452;BME280;66031;51.224;-0.164;2023-01-29T01:16:09;102266.46;;;15.80;32.82
57452;BME280;66031;51.224;-0.164;2023-01-29T01:18:33;102264.24;;;15.84;32.73
57452;BME280;66031;51.224;-0.164;2023-01-29T01:20:59;102261.04;;;16.11;32.71
57452;BME280;66031;51.224;-0.164;2023-01-29T01:23:24;102261.10;;;15.78;32.78
57452;BME280;66031;51.224;-0.164;2023-01-29T01:25:49;102258.34;;;15.96;32.88
57452;BME280;66031;51.224;-0.164;2023-01-29T01:28:15;102254.55;;;15.68;32.87
57452;BME280;66031;51.224;-0.164;2023-01-29T01:30:40;102248.50;;;15.80;32.76
57452;BME280;66031;51.224;-0.164;2023-01-29T01:33:06;102245.00;;;15.92;32.83
57452;BME280;66031;51.224;-0.164;2023-01-29T01:35:31;102247.65;;;15.91;32.83
57452;BME280;66031;51.224;-0.164;2023-01-29T01:37:56;102252.81;;;15.86;32.89
57452;BME280;66031;51.224;-0.164;2023-01-29T01:40:23;102246.71;;;15.82;32.92
57452;BME280;66031;51.224;-0.164;2023-01-29T01:42:48;102240.25;;;15.77;32.93
57452;BME280;66031;51.224;-0.164;2023-01-29T01:45:18;102240.10;;;15.53;32.94
57452;BME280;66031;51.224;-0.164;2023-01-29T01:47:41;102235.39;;;15.84;32.85
57452;BME280;66031;51.224;-0.164;2023-01-29T01:50:07;102229.68;;;15.71;32.90
57452;BME280;66031;51.224;-0.164;2023-01-29T01:52:30;102232.45;;;15.46;32.97
57452;BME280;66031;51.224;-0.164;2023-01-29T01:54:54;102235.25;;;15.66;32.98
57452;BME280;66031;51.224;-0.164;2023-01-29T01:57:23;102235.37;;;15.67;32.98
57452;BME280;66031;51.224;-0.164;2023-01-29T01:59:47;102238.46;;;15.65;32.98
57452;BME280;66031;51.224;-0.164;2023-01-29T02:02:11;102237.29;;;15.66;32.91
57452;BME280;66031;51.224;-0.164;2023-01-29T02:04:43;102238.09;;;15.60;32.98
57452;BME280;66031;51.224;-0.164;2023-01-29T02:07:03;102239.04;;;15.62;32.94
57452;BME280;66031;51.224;-0.164;2023-01-29T02:09:31;102239.09;;;15.53;32.99
57452;BME280;66031;51.224;-0.164;2023-01-29T02:11:52;102236.67;;;15.52;32.98
57452;BME280;66031;51.224;-0.164;2023-01-29T02:14:18;102233.34;;;15.51;32.98
57452;BME280;66031;51.224;-0.164;2023-01-29T02:16:43;102234.31;;;15.49;32.98
57452;BME280;66031;51.224;-0.164;2023-01-29T02:19:12;102239.19;;;15.53;32.96
57452;BME280;66031;51.224;-0.164;2023-01-29T02:21:49;102239.61;;;15.48;32.95
57452;BME280;66031;51.224;-0.164;2023-01-29T02:24:21;102238.43;;;15.41;33.00
57452;BME280;66031;51.224;-0.164;2023-01-29T02:26:36;102241.50;;;15.38;33.00
57452;BME280;66031;51.224;-0.164;2023-01-29T02:28:54;102242.70;;;15.48;32.88
57452;BME280;66031;51.224;-0.164;2023-01-29T02:31:23;102234.81;;;15.45;32.89
57452;BME280;66031;51.224;-0.164;2023-01-29T02:33:49;102234.85;;;15.39;32.94
57452;BME280;66031;51.224;-0.164;2023-01-29T02:36:13;102233.98;;;15.37;32.95
57452;BME280;66031;51.224;-0.164;2023-01-29T02:38:38;102231.49;;;15.84;32.90
57452;BME280;66031;51.224;-0.164;2023-01-29T02:41:02;102236.45;;;15.27;32.99
57452;BME280;66031;51.224;-0.164;2023-01-29T02:43:29;102236.98;;;15.27;32.98
57452;BME280;66031;51.224;-0.164;2023-01-29T02:45:53;102231.71;;;15.24;33.04
57452;BME280;66031;51.224;-0.164;2023-01-29T02:48:17;102228.68;;;15.47;32.97
57452;BME280;66031;51.224;-0.164;2023-01-29T02:50:43;102223.44;;;15.43;33.00
57452;BME280;66031;51.224;-0.164;2023-01-29T02:53:08;102226.18;;;15.21;32.97
57452;BME280;66031;51.224;-0.164;2023-01-29T02:55:34;102229.66;;;15.24;32.92
57452;BME280;66031;51.224;-0.164;2023-01-29T02:57:59;102229.45;;;15.17;32.95
57452;BME280;66031;51.224;-0.164;2023-01-29T03:00:23;102234.65;;;15.16;32.94
57452;BME280;66031;51.224;-0.164;2023-01-29T03:02:50;102227.93;;;15.12;32.96
57452;BME280;66031;51.224;-0.164;2023-01-29T03:05:15;102228.98;;;14.92;32.91
57452;BME280;66031;51.224;-0.164;2023-01-29T03:07:42;102228.74;;;15.29;32.74
57452;BME280;66031;51.224;-0.164;2023-01-29T03:10:04;102227.80;;;15.26;32.73
57452;BME280;66031;51.224;-0.164;2023-01-29T03:12:29;102229.10;;;15.34;32.62
57452;BME280;66031;51.224;-0.164;2023-01-29T03:14:54;102224.99;;;15.25;32.69
57452;BME280;66031;51.224;-0.164;2023-01-29T03:17:21;102224.77;;;15.41;32.72
57452;BME280;66031;51.224;-0.164;2023-01-29T03:19:46;102224.40;;;15.20;32.70
57452;BME280;66031;51.224;-0.164;2023-01-29T03:22:10;102219.00;;;15.37;32.74
57452;BME280;66031;51.224;-0.164;2023-01-29T03:24:40;102220.10;;;15.10;32.80
57452;BME280;66031;51.224;-0.164;2023-01-29T03:27:02;102217.34;;;15.30;32.79
57452;BME280;66031;51.224;-0.164;2023-01-29T03:29:27;102214.22;;;15.08;32.73
57452;BME280;66031;51.224;-0.164;2023-01-29T03:31:52;102210.85;;;15.13;32.67
57452;BME280;66031;51.224;-0.164;2023-01-29T03:34:20;102207.38;;;15.09;32.68
57452;BME280;66031;51.224;-0.164;2023-01-29T03:36:49;102205.23;;;15.07;32.69
57452;BME280;66031;51.224;-0.164;2023-01-29T03:39:08;102207.19;;;15.02;32.74
57452;BME280;66031;51.224;-0.164;2023-01-29T03:41:35;102206.08;;;14.94;32.79
57452;BME280;66031;51.224;-0.164;2023-01-29T03:44:06;102201.60;;;14.92;32.80
57452;BME280;66031;51.224;-0.164;2023-01-29T03:46:28;102197.82;;;14.89;32.79
57452;BME280;66031;51.224;-0.164;2023-01-29T03:48:54;102190.72;;;15.37;32.79
57452;BME280;66031;51.224;-0.164;2023-01-29T03:51:22;102187.05;;;14.87;32.79
57452;BME280;66031;51.224;-0.164;2023-01-29T03:53:42;102188.20;;;14.87;32.77
57452;BME280;66031;51.224;-0.164;2023-01-29T03:56:10;102189.49;;;15.32;32.77
57452;BME280;66031;51.224;-0.164;2023-01-29T03:58:35;102191.00;;;15.04;32.81
57452;BME280;66031;51.224;-0.164;2023-01-29T04:01:00;102190.71;;;15.26;32.80
57452;BME280;66031;51.224;-0.164;2023-01-29T04:03:28;102191.02;;;15.01;32.80
57452;BME280;66031;51.224;-0.164;2023-01-29T04:05:51;102190.38;;;15.01;32.81
57452;BME280;66031;51.224;-0.164;2023-01-29T04:08:16;102190.80;;;15.28;32.73
57452;BME280;66031;51.224;-0.164;2023-01-29T04:10:40;102190.04;;;15.00;32.75
57452;BME280;66031;51.224;-0.164;2023-01-29T04:13:07;102185.72;;;14.91;32.83
57452;BME280;66031;51.224;-0.164;2023-01-29T04:15:35;102182.34;;;14.71;32.78
57452;BME280;66031;51.224;-0.164;2023-01-29T04:17:56;102183.01;;;14.75;32.71
57452;BME280;66031;51.224;-0.164;2023-01-29T04:20:23;102180.75;;;15.24;32.68
57452;BME280;66031;51.224;-0.164;2023-01-29T04:22:49;102183.09;;;14.98;32.69
57452;BME280;66031;51.224;-0.164;2023-01-29T04:25:15;102183.16;;;14.74;32.66
57452;BME280;66031;51.224;-0.164;2023-01-29T04:27:43;102178.60;;;14.94;32.68
57452;BME280;66031;51.224;-0.164;2023-01-29T04:30:14;102179.98;;;15.24;32.60
57452;BME280;66031;51.224;-0.164;2023-01-29T04:32:34;102180.59;;;14.92;32.68
57452;BME280;66031;51.224;-0.164;2023-01-29T04:35:00;102181.86;;;14.66;32.68
57452;BME280;66031;51.224;-0.164;2023-01-29T04:37:25;102177.53;;;14.97;32.58
57452;BME280;66031;51.224;-0.164;2023-01-29T04:39:51;102176.59;;;14.63;32.68
57452;BME280;66031;51.224;-0.164;2023-01-29T04:42:14;102178.27;;;14.90;32.65
57452;BME280;66031;51.224;-0.164;2023-01-29T04:44:40;102181.16;;;14.95;32.54
57452;BME280;66031;51.224;-0.164;2023-01-29T04:47:06;102179.17;;;14.82;32.68
57452;BME280;66031;51.224;-0.164;2023-01-29T04:49:32;102176.85;;;15.03;32.70
57452;BME280;66031;51.224;-0.164;2023-01-29T04:51:59;102172.96;;;14.48;32.75
57452;BME280;66031;51.224;-0.164;2023-01-29T04:54:27;102165.45;;;14.98;32.72
57452;BME280;66031;51.224;-0.164;2023-01-29T04:56:50;102159.03;;;14.47;32.74
57452;BME280;66031;51.224;-0.164;2023-01-29T04:59:12;102155.16;;;14.93;32.74
57452;BME280;66031;51.224;-0.164;2023-01-29T05:01:35;102156.26;;;14.66;32.77
57452;BME280;66031;51.224;-0.164;2023-01-29T05:04:04;102162.06;;;14.62;32.81
57452;BME280;66031;51.224;-0.164;2023-01-29T05:06:27;102160.13;;;14.92;32.72
57452;BME280;66031;51.224;-0.164;2023-01-29T05:08:52;102163.79;;;14.59;32.82
57452;BME280;66031;51.224;-0.164;2023-01-29T05:11:17;102158.37;;;14.85;32.77
57452;BME280;66031;51.224;-0.164;2023-01-29T05:13:42;102153.18;;;15.04;32.81
57452;BME280;66031;51.224;-0.164;2023-01-29T05:16:13;102146.54;;;14.80;32.80
57452;BME280;66031;51.224;-0.164;2023-01-29T05:18:33;102144.71;;;14.85;32.72
57452;BME280;66031;51.224;-0.164;2023-01-29T05:21:03;102137.71;;;14.35;32.73
57452;BME280;66031;51.224;-0.164;2023-01-29T05:23:24;102127.81;;;14.80;32.74
57452;BME280;66031;51.224;-0.164;2023-01-29T05:25:50;102125.42;;;14.56;32.71
57452;BME280;66031;51.224;-0.164;2023-01-29T05:28:15;102121.94;;;14.35;32.66
57452;BME280;66031;51.224;-0.164;2023-01-29T05:30:41;102119.31;;;14.66;32.56
57452;BME280;66031;51.224;-0.164;2023-01-29T05:33:11;102116.11;;;14.77;32.67
57452;BME280;66031;51.224;-0.164;2023-01-29T05:35:31;102115.95;;;14.50;32.72
57452;BME280;66031;51.224;-0.164;2023-01-29T05:37:57;102110.83;;;14.50;32.70
57452;BME280;66031;51.224;-0.164;2023-01-29T05:40:23;102107.32;;;14.68;32.76
57452;BME280;66031;51.224;-0.164;2023-01-29T05:42:48;102102.15;;;14.66;32.76
57452;BME280;66031;51.224;-0.164;2023-01-29T05:45:13;102101.08;;;14.48;32.70
57452;BME280;66031;51.224;-0.164;2023-01-29T05:47:38;102102.49;;;14.43;32.72
57452;BME280;66031;51.224;-0.164;2023-01-29T05:50:05;102102.10;;;14.43;32.73
57452;BME280;66031;51.224;-0.164;2023-01-29T05:52:30;102099.80;;;14.67;32.69
57452;BME280;66031;51.224;-0.164;2023-01-29T05:54:55;102104.71;;;14.66;32.70
57452;BME280;66031;51.224;-0.164;2023-01-29T05:57:21;102104.49;;;14.60;32.77
57452;BME280;66031;51.224;-0.164;2023-01-29T05:59:46;102105.02;;;14.40;32.69
57452;BME280;66031;51.224;-0.164;2023-01-29T06:02:11;102099.82;;;14.57;32.77
57452;BME280;66031;51.224;-0.164;2023-01-29T06:04:37;102103.57;;;14.59;32.75
57452;BME280;66031;51.224;-0.164;2023-01-29T06:07:02;102103.60;;;14.58;32.74
57452;BME280;66031;51.224;-0.164;2023-01-29T06:09:28;102108.45;;;14.33;32.73
57452;BME280;66031;51.224;-0.164;2023-01-29T06:11:53;102109.33;;;14.50;32.80
57452;BME280;66031;51.224;-0.164;2023-01-29T06:14:19;102106.66;;;14.28;32.76
57452;BME280;66031;51.224;-0.164;2023-01-29T06:16:44;102096.97;;;14.28;32.74
57452;BME280;66031;51.224;-0.164;2023-01-29T06:19:10;102095.22;;;14.42;32.58
57452;BME280;66031;51.224;-0.164;2023-01-29T06:21:35;102094.19;;;14.61;32.61
57452;BME280;66031;51.224;-0.164;2023-01-29T06:24:00;102097.01;;;14.28;32.72
57452;BME280;66031;51.224;-0.164;2023-01-29T06:26:26;102091.37;;;14.54;32.67
57452;BME280;66031;51.224;-0.164;2023-01-29T06:28:51;102090.55;;;14.58;32.62
57452;BME280;66031;51.224;-0.164;2023-01-29T06:31:17;102091.77;;;14.56;32.61
57452;BME280;66031;51.224;-0.164;2023-01-29T06:33:43;102096.00;;;14.66;32.52
57452;BME280;66031;51.224;-0.164;2023-01-29T06:36:09;102089.33;;;14.67;32.31
57452;BME280;66031;51.224;-0.164;2023-01-29T06:38:34;102092.87;;;14.99;32.29
57452;BME280;66031;51.224;-0.164;2023-01-29T06:41:06;102088.73;;;15.15;32.18
57452;BME280;66031;51.224;-0.164;2023-01-29T06:43:25;102086.25;;;15.01;31.85
57452;BME280;66031;51.224;-0.164;2023-01-29T06:45:54;102088.15;;;15.57;31.87
57452;BME280;66031;51.224;-0.164;2023-01-29T06:48:17;102094.10;;;15.76;31.78
57452;BME280;66031;51.224;-0.164;2023-01-29T06:50:42;102093.54;;;15.49;31.94
57452;BME280;66031;51.224;-0.164;2023-01-29T06:53:07;102094.99;;;15.53;31.75
57452;BME280;66031;51.224;-0.164;2023-01-29T06:55:32;102096.79;;;15.93;32.13
57452;BME280;66031;51.224;-0.164;2023-01-29T06:57:58;102097.01;;;15.67;32.24
57452;BME280;66031;51.224;-0.164;2023-01-29T07:00:23;102102.00;;;15.83;32.00
57452;BME280;66031;51.224;-0.164;2023-01-29T07:02:49;102102.26;;;15.93;32.04
57452;BME280;66031;51.224;-0.164;2023-01-29T07:05:14;102099.50;;;16.01;31.94
57452;BME280;66031;51.224;-0.164;2023-01-29T07:07:39;102101.22;;;16.11;31.99
57452;BME280;66031;51.224;-0.164;2023-01-29T07:10:05;102096.82;;;16.23;31.75
57452;BME280;66031;51.224;-0.164;2023-01-29T07:12:30;102095.40;;;16.26;31.72
57452;BME280;66031;51.224;-0.164;2023-01-29T07:14:55;102100.71;;;16.42;31.63
57452;BME280;66031;51.224;-0.164;2023-01-29T07:17:21;102101.04;;;16.24;31.70
57452;BME280;66031;51.224;-0.164;2023-01-29T07:19:46;102103.60;;;16.41;31.57
57452;BME280;66031;51.224;-0.164;2023-01-29T07:22:12;102103.35;;;16.76;31.39
57452;BME280;66031;51.224;-0.164;2023-01-29T07:24:37;102097.47;;;16.52;31.48
57452;BME280;66031;51.224;-0.164;2023-01-29T07:27:02;102093.34;;;16.30;31.41
57452;BME280;66031;51.224;-0.164;2023-01-29T07:29:28;102086.22;;;16.51;31.21
57452;BME280;66031;51.224;-0.164;2023-01-29T07:31:53;102088.35;;;16.79;31.19
57452;BME280;66031;51.224;-0.164;2023-01-29T07:34:18;102083.45;;;16.58;31.24
57452;BME280;66031;51.224;-0.164;2023-01-29T07:36:44;102083.01;;;16.48;31.12
57452;BME280;66031;51.224;-0.164;2023-01-29T07:39:09;102083.45;;;16.83;31.02
57452;BME280;66031;51.224;-0.164;2023-01-29T07:41:35;102083.05;;;16.85;31.01
57452;BME280;66031;51.224;-0.164;2023-01-29T07:44:00;102082.44;;;16.92;30.98
57452;BME280;66031;51.224;-0.164;2023-01-29T07:46:26;102081.62;;;16.86;31.06
57452;BME280;66031;51.224;-0.164;2023-01-29T07:48:51;102081.80;;;16.93;30.98
57452;BME280;66031;51.224;-0.164;2023-01-29T07:51:17;102078.27;;;16.84;31.09
57452;BME280;66031;51.224;-0.164;2023-01-29T07:53:42;102083.03;;;16.79;31.18
57452;BME280;66031;51.224;-0.164;2023-01-29T07:56:07;102086.42;;;16.93;31.10
57452;BME280;66031;51.224;-0.164;2023-01-29T07:58:33;102086.70;;;16.99;31.06
57452;BME280;66031;51.224;-0.164;2023-01-29T08:00:58;102087.32;;;16.84;30.78
57452;BME280;66031;51.224;-0.164;2023-01-29T08:03:24;102082.47;;;17.38;31.41
57452;BME280;66031;51.224;-0.164;2023-01-29T08:05:49;102077.57;;;17.26;31.29
57452;BME280;66031;51.224;-0.164;2023-01-29T08:08:14;102072.56;;;17.69;30.84
57452;BME280;66031;51.224;-0.164;2023-01-29T08:10:40;102070.91;;;17.93;31.12
57452;BME280;66031;51.224;-0.164;2023-01-29T08:13:05;102074.85;;;17.67;31.57
57452;BME280;66031;51.224;-0.164;2023-01-29T08:15:31;102073.75;;;17.55;31.23
57452;BME280;66031;51.224;-0.164;2023-01-29T08:17:55;102073.70;;;17.67;31.08
57452;BME280;66031;51.224;-0.164;2023-01-29T08:20:21;102067.45;;;17.73;31.11
57452;BME280;66031;51.224;-0.164;2023-01-29T08:22:46;102064.03;;;17.72;31.13
57452;BME280;66031;51.224;-0.164;2023-01-29T08:25:12;102064.46;;;17.69;31.29
57452;BME280;66031;51.224;-0.164;2023-01-29T08:27:37;102060.11;;;17.67;31.16
57452;BME280;66031;51.224;-0.164;2023-01-29T08:30:03;102056.54;;;17.51;31.14
57452;BME280;66031;51.224;-0.164;2023-01-29T08:32:27;102055.45;;;17.48;31.43
57452;BME280;66031;51.224;-0.164;2023-01-29T08:34:53;102056.52;;;17.51;30.79
57452;BME280;66031;51.224;-0.164;2023-01-29T08:37:18;102057.47;;;17.56;30.53
57452;BME280;66031;51.224;-0.164;2023-01-29T08:39:43;102056.98;;;17.18;30.73
57452;BME280;66031;51.224;-0.164;2023-01-29T08:42:09;102059.96;;;17.54;30.86
57452;BME280;66031;51.224;-0.164;2023-01-29T08:44:34;102059.79;;;16.94;30.93
57452;BME280;66031;51.224;-0.164;2023-01-29T08:47:00;102059.30;;;17.33;30.98
57452;BME280;66031;51.224;-0.164;2023-01-29T08:49:25;102057.02;;;17.13;30.93
57452;BME280;66031;51.224;-0.164;2023-01-29T08:51:50;102057.06;;;17.13;30.96
57452;BME280;66031;51.224;-0.164;2023-01-29T08:54:16;102057.22;;;17.11;31.05
57452;BME280;66031;51.224;-0.164;2023-01-29T08:56:41;102054.73;;;16.85;30.99
57452;BME280;66031;51.224;-0.164;2023-01-29T08:59:06;102057.04;;;17.18;31.28
57452;BME280;66031;51.224;-0.164;2023-01-29T09:01:32;102057.92;;;16.92;31.18
57452;BME280;66031;51.224;-0.164;2023-01-29T09:03:57;102059.36;;;16.80;31.32
57452;BME280;66031;51.224;-0.164;2023-01-29T09:06:23;102058.55;;;16.94;31.29
57452;BME280;66031;51.224;-0.164;2023-01-29T09:08:48;102061.40;;;17.34;31.18
57452;BME280;66031;51.224;-0.164;2023-01-29T09:11:13;102062.39;;;16.82;31.29
57452;BME280;66031;51.224;-0.164;2023-01-29T09:13:38;102062.13;;;17.00;31.33
57452;BME280;66031;51.224;-0.164;2023-01-29T09:16:04;102061.80;;;16.77;31.27
57452;BME280;66031;51.224;-0.164;2023-01-29T09:18:30;102065.51;;;16.65;31.48
57452;BME280;66031;51.224;-0.164;2023-01-29T09:20:55;102067.95;;;16.47;31.28
57452;BME280;66031;51.224;-0.164;2023-01-29T09:23:20;102067.16;;;16.79;31.63
57452;BME280;66031;51.224;-0.164;2023-01-29T09:25:45;102062.36;;;16.82;32.03
57452;BME280;66031;51.224;-0.164;2023-01-29T09:28:11;102059.21;;;16.57;31.96
57452;BME280;66031;51.224;-0.164;2023-01-29T09:30:36;102058.31;;;16.69;31.93
57452;BME280;66031;51.224;-0.164;2023-01-29T09:33:01;102057.00;;;16.82;32.13
57452;BME280;66031;51.224;-0.164;2023-01-29T09:35:27;102059.43;;;16.70;32.06
57452;BME280;66031;51.224;-0.164;2023-01-29T09:37:52;102050.44;;;16.89;32.05
57452;BME280;66031;51.224;-0.164;2023-01-29T09:40:23;102049.85;;;16.61;32.17
57452;BME280;66031;51.224;-0.164;2023-01-29T09:42:45;102046.97;;;16.33;32.14
57452;BME280;66031;51.224;-0.164;2023-01-29T09:45:12;102049.71;;;16.58;32.04
57452;BME280;66031;51.224;-0.164;2023-01-29T09:47:35;102045.15;;;16.35;32.11
57452;BME280;66031;51.224;-0.164;2023-01-29T09:50:01;102045.04;;;16.54;31.96
57452;BME280;66031;51.224;-0.164;2023-01-29T09:52:26;102047.09;;;16.46;32.73
57452;BME280;66031;51.224;-0.164;2023-01-29T09:54:56;102042.77;;;16.28;32.87
57452;BME280;66031;51.224;-0.164;2023-01-29T09:57:19;102044.24;;;16.33;32.91
57452;BME280;66031;51.224;-0.164;2023-01-29T09:59:40;102042.82;;;16.36;33.07
57452;BME280;66031;51.224;-0.164;2023-01-29T10:02:10;102044.31;;;16.35;33.24
57452;BME280;66031;51.224;-0.164;2023-01-29T10:04:44;102042.94;;;16.70;33.15
57452;BME280;66031;51.224;-0.164;2023-01-29T10:07:10;102043.02;;;16.47;33.12
57452;BME280;66031;51.224;-0.164;2023-01-29T10:09:40;102043.37;;;16.60;33.08
57452;BME280;66031;51.224;-0.164;2023-01-29T10:11:55;102047.65;;;16.54;32.80
57452;BME280;66031;51.224;-0.164;2023-01-29T10:14:20;102048.34;;;16.59;32.73
57452;BME280;66031;51.224;-0.164;2023-01-29T10:16:48;102051.92;;;16.58;32.79
57452;BME280;66031;51.224;-0.164;2023-01-29T10:19:12;102051.23;;;16.64;32.79
57452;BME280;66031;51.224;-0.164;2023-01-29T10:21:40;102050.34;;;16.66;32.87
57452;BME280;66031;51.224;-0.164;2023-01-29T10:23:58;102050.83;;;16.73;32.67
57452;BME280;66031;51.224;-0.164;2023-01-29T10:26:20;102045.53;;;16.38;32.74
57452;BME280;66031;51.224;-0.164;2023-01-29T10:28:48;102044.00;;;16.23;33.57
57452;BME280;66031;51.224;-0.164;2023-01-29T10:31:12;102037.87;;;16.38;33.71
57452;BME280;66031;51.224;-0.164;2023-01-29T10:33:38;102035.69;;;16.31;33.65
57452;BME280;66031;51.224;-0.164;2023-01-29T10:36:02;102031.16;;;16.10;33.73
57452;BME280;66031;51.224;-0.164;2023-01-29T10:38:39;102028.90;;;16.32;33.60
57452;BME280;66031;51.224;-0.164;2023-01-29T10:40:57;102029.79;;;15.99;33.87
57452;BME280;66031;51.224;-0.164;2023-01-29T10:43:21;102030.19;;;15.93;33.86
57452;BME280;66031;51.224;-0.164;2023-01-29T10:45:46;102031.34;;;16.08;33.80
57452;BME280;66031;51.224;-0.164;2023-01-29T10:48:25;102028.47;;;16.06;33.94
57452;BME280;66031;51.224;-0.164;2023-01-29T10:50:43;102027.94;;;15.95;33.93
57452;BME280;66031;51.224;-0.164;2023-01-29T10:53:11;102023.12;;;15.92;33.73
57452;BME280;66031;51.224;-0.164;2023-01-29T10:55:33;102020.21;;;16.07;33.99
57452;BME280;66031;51.224;-0.164;2023-01-29T10:57:59;102016.96;;;16.01;33.93
57452;BME280;66031;51.224;-0.164;2023-01-29T11:00:20;102010.69;;;16.02;33.99
57452;BME280;66031;51.224;-0.164;2023-01-29T11:02:44;102009.49;;;15.80;34.05
57452;BME280;66031;51.224;-0.164;2023-01-29T11:05:14;102006.60;;;16.16;34.17
57452;BME280;66031;51.224;-0.164;2023-01-29T11:07:30;102003.62;;;15.64;34.12
57452;BME280;66031;51.224;-0.164;2023-01-29T11:10:02;102001.11;;;15.85;34.04
57452;BME280;66031;51.224;-0.164;2023-01-29T11:12:24;102003.88;;;15.75;34.01
57452;BME280;66031;51.224;-0.164;2023-01-29T11:14:49;102000.45;;;15.78;33.92
57452;BME280;66031;51.224;-0.164;2023-01-29T11:17:16;101994.46;;;16.02;34.03
57452;BME280;66031;51.224;-0.164;2023-01-29T11:19:39;101989.25;;;15.82;34.20
57452;BME280;66031;51.224;-0.164;2023-01-29T11:22:03;101984.56;;;16.20;33.82
57452;BME280;66031;51.224;-0.164;2023-01-29T11:24:28;101988.82;;;15.79;34.25
57452;BME280;66031;51.224;-0.164;2023-01-29T11:26:56;101981.58;;;15.59;34.30
57452;BME280;66031;51.224;-0.164;2023-01-29T11:29:30;101976.75;;;15.60;34.18
57452;BME280;66031;51.224;-0.164;2023-01-29T11:31:44;101966.96;;;16.17;34.11
57452;BME280;66031;51.224;-0.164;2023-01-29T11:34:18;101958.84;;;15.61;34.68
57452;BME280;66031;51.224;-0.164;2023-01-29T11:36:37;101955.00;;;15.66;34.97
57452;BME280;66031;51.224;-0.164;2023-01-29T11:39:15;101954.31;;;15.84;35.04
57452;BME280;66031;51.224;-0.164;2023-01-29T11:41:26;101947.17;;;15.54;34.98
57452;BME280;66031;51.224;-0.164;2023-01-29T11:43:51;101943.60;;;15.48;34.87
57452;BME280;66031;51.224;-0.164;2023-01-29T11:46:17;101938.15;;;15.54;34.66
57452;BME280;66031;51.224;-0.164;2023-01-29T11:48:44;101931.81;;;15.74;34.62
57452;BME280;66031;51.224;-0.164;2023-01-29T11:51:10;101928.01;;;15.67;34.66
57452;BME280;66031;51.224;-0.164;2023-01-29T11:53:36;101923.24;;;15.42;34.65
57452;BME280;66031;51.224;-0.164;2023-01-29T11:55:58;101914.58;;;15.38;34.71
57452;BME280;66031;51.224;-0.164;2023-01-29T11:58:27;101911.34;;;15.62;34.74
57452;BME280;66031;51.224;-0.164;2023-01-29T12:00:51;101904.75;;;15.36;34.73
57452;BME280;66031;51.224;-0.164;2023-01-29T12:03:19;101899.74;;;15.59;34.77
57452;BME280;66031;51.224;-0.164;2023-01-29T12:05:51;101898.54;;;15.38;34.74
57452;BME280;66031;51.224;-0.164;2023-01-29T12:08:14;101891.53;;;15.70;34.70
57452;BME280;66031;51.224;-0.164;2023-01-29T12:10:33;101890.88;;;15.43;34.82
57452;BME280;66031;51.224;-0.164;2023-01-29T12:13:04;101887.92;;;15.46;34.85
57452;BME280;66031;51.224;-0.164;2023-01-29T12:15:22;101885.06;;;15.47;34.87
57452;BME280;66031;51.224;-0.164;2023-01-29T12:17:55;101879.99;;;15.28;34.76
57452;BME280;66031;51.224;-0.164;2023-01-29T12:20:14;101878.16;;;15.61;34.74
57452;BME280;66031;51.224;-0.164;2023-01-29T12:22:43;101873.79;;;15.49;34.78
57452;BME280;66031;51.224;-0.164;2023-01-29T12:25:08;101869.89;;;15.46;34.73
57452;BME280;66031;51.224;-0.164;2023-01-29T12:27:33;101865.74;;;15.47;34.69
57452;BME280;66031;51.224;-0.164;2023-01-29T12:29:58;101855.94;;;13.98;34.48